Time;durP1;ratioP1;P1;durP2;ratioP2;P2;SDS_P1;SDS_P2;PMS_P1;PMS_P2;Temp;Humidity;BMP_temperature;BMP_pressure;BME280_temperature;BME280_humidity;BME280_pressure;Samples;Min_cycle;Max_cycle;Signal;HPM_P1;HPM_P2
2022/02/05 00:04:37;;;;;;;29.30;15.75;;;128.70;2252.80;;;;;;4993792;28;20118;-59
2022/02/05 00:07:05;;;;;;;80.18;42.17;;;128.60;2252.80;;;;;;4994060;28;20026;-58
2022/02/05 00:10:06;;;;;;;36.13;19.88;;;128.50;2252.80;;;;;;4993708;28;20542;-58
2022/02/05 00:44:50;;;;;;;45.45;22.67;;;128.00;2252.80;;;;;;4993532;28;20034;-58
2022/02/05 00:47:17;;;;;;;36.65;17.42;;;103.30;2227.20;;;;;;4993558;28;20031;-58
2022/02/05 00:49:45;;;;;;;60.92;33.55;;;103.30;2227.20;;;;;;4993337;28;20031;-58
2022/02/05 00:52:14;;;;;;;43.97;26.00;;;103.20;2227.20;;;;;;4993300;28;20100;-58
2022/02/05 00:54:45;;;;;;;52.85;26.52;;;103.30;2227.20;;;;;;4993790;28;20034;-58
2022/02/05 00:57:33;;;;;;;115.75;61.05;;;103.20;2227.20;;;;;;4993040;28;20145;-58
2022/02/05 01:00:00;;;;;;;87.35;44.28;;;103.20;2227.20;;;;;;4993470;28;20461;-57
2022/02/05 01:02:26;;;;;;;167.25;81.85;;;128.00;2252.80;;;;;;4993075;28;20030;-57
2022/02/05 01:04:52;;;;;;;56.05;29.70;;;128.10;2252.80;;;;;;4993438;28;20026;-57
2022/02/05 01:07:17;;;;;;;154.30;76.50;;;128.10;2252.80;;;;;;4993173;28;20410;-58
2022/02/05 01:09:46;;;;;;;69.60;37.30;;;128.20;2252.80;;;;;;4993121;28;20022;-58
2022/02/05 01:12:12;;;;;;;50.70;32.03;;;128.20;2252.80;;;;;;4993326;28;20034;-58
2022/02/05 01:14:52;;;;;;;223.38;110.38;;;128.50;2252.80;;;;;;4995868;28;20022;-59
2022/02/05 01:17:25;;;;;;;157.45;79.13;;;128.60;2252.80;;;;;;4996753;28;20049;-56
2022/02/05 01:20:32;;;;;;;90.95;55.60;;;128.80;2252.80;;;;;;4996758;28;20041;-59
2022/02/05 01:22:57;;;;;;;70.97;42.58;;;128.70;2252.80;;;;;;4996703;28;20037;-59
2022/02/05 01:25:27;;;;;;;96.28;54.22;;;128.70;2252.80;;;;;;4997067;28;20031;-58
2022/02/05 01:27:58;;;;;;;78.22;46.00;;;128.90;2252.80;;;;;;4996573;28;20046;-58
2022/02/05 01:30:29;;;;;;;223.55;112.93;;;128.90;2252.80;;;;;;4996790;28;20030;-59
2022/02/05 01:55:35;;;;;;;187.43;94.70;;;154.40;2252.80;;;;;;4996984;28;20104;-59
2022/02/05 02:11:50;;;;;;;39.80;21.63;;;153.60;2252.80;;;;;;4996517;28;20029;-59
2022/02/05 02:21:56;;;;;;;97.68;47.65;;;153.90;2252.80;;;;;;4995669;28;20022;-59
2022/02/05 02:24:36;;;;;;;148.75;73.65;;;154.00;2252.80;;;;;;4995896;28;20372;-58
2022/02/05 02:29:49;;;;;;;103.68;47.58;;;154.10;2252.80;;;;;;4995641;28;20031;-60
2022/02/05 02:32:16;;;;;;;68.70;31.35;;;154.10;2252.80;;;;;;4995864;28;20053;-59
2022/02/05 02:34:47;;;;;;;180.63;88.93;;;154.20;2252.80;;;;;;4995850;28;20030;-58
2022/02/05 02:37:19;;;;;;;232.75;116.30;;;154.40;2252.80;;;;;;4995797;28;20042;-59
2022/02/05 02:42:52;;;;;;;;;;;179.30;2252.80;;;;;;4935943;29;20044;-59
2022/02/05 02:45:18;;;;;;;59.47;26.88;;;179.20;2252.80;;;;;;4935448;29;20471;-60
2022/02/05 02:47:45;;;;;;;212.98;97.75;;;154.50;2252.80;;;;;;4935485;29;20071;-59
2022/02/05 02:56:25;;;;;;;169.32;87.20;;;179.20;2252.80;;;;;;4934731;29;20076;-59
2022/02/05 02:58:32;;;;;;;165.23;76.50;;;179.60;2252.80;;;;;;4931315;29;20101;-59
2022/02/05 03:01:00;;;;;;;42.45;20.98;;;179.50;2252.80;;;;;;4931119;29;20438;-59
2022/02/05 03:03:27;;;;;;;149.98;69.97;;;179.40;2252.80;;;;;;4931127;29;20095;-59
2022/02/05 03:05:53;;;;;;;333.13;166.13;;;179.30;2252.80;;;;;;4931092;29;20111;-59
2022/02/05 03:08:19;;;;;;;35.58;16.77;;;179.70;2252.80;;;;;;4930942;29;20123;-60
2022/02/05 03:10:45;;;;;;;52.58;32.55;;;179.40;2252.80;;;;;;4930911;29;20028;-59
2022/02/05 03:13:10;;;;;;;68.40;33.08;;;179.40;2252.80;;;;;;4951757;28;20046;-58
2022/02/05 03:15:38;;;;;;;39.85;20.85;;;179.50;2252.80;;;;;;4991118;28;20448;-58
2022/02/05 03:18:10;;;;;;;49.05;26.70;;;179.40;2252.80;;;;;;4990829;28;20103;-59
2022/02/05 03:20:36;;;;;;;49.58;25.10;;;179.40;2252.80;;;;;;4990828;28;20030;-58
2022/02/05 03:23:03;;;;;;;55.47;28.15;;;179.40;2252.80;;;;;;4990588;28;20088;-59
2022/02/05 03:25:30;;;;;;;46.40;23.83;;;179.30;2252.80;;;;;;4990863;28;20487;-59
2022/02/05 03:27:56;;;;;;;43.05;22.45;;;179.30;2252.80;;;;;;4990521;28;20046;-59
2022/02/05 03:30:23;;;;;;;167.27;82.10;;;179.30;2252.80;;;;;;4990768;28;20369;-59
2022/02/05 03:32:49;;;;;;;46.20;23.90;;;154.50;2252.80;;;;;;4990466;28;20492;-58
2022/02/05 03:35:15;;;;;;;73.53;37.85;;;154.50;2252.80;;;;;;4990557;28;20380;-59
2022/02/05 03:37:40;;;;;;;46.10;26.70;;;154.50;2252.80;;;;;;4990418;28;20045;-59
2022/02/05 03:40:07;;;;;;;65.85;35.33;;;154.50;2252.80;;;;;;4990357;28;20372;-58
2022/02/05 03:42:34;;;;;;;20.08;11.88;;;179.30;2252.80;;;;;;4990518;28;20038;-59
2022/02/05 03:45:00;;;;;;;67.28;36.78;;;179.40;2252.80;;;;;;4990683;28;20031;-59
2022/02/05 03:47:30;;;;;;;31.58;17.98;;;179.60;2252.80;;;;;;4990253;28;20030;-59
2022/02/05 03:49:56;;;;;;;27.13;15.63;;;179.90;2252.80;;;;;;4990002;28;20027;-59
2022/02/05 03:52:22;;;;;;;5.72;3.78;;;179.80;2252.80;;;;;;4990580;28;20432;-59
2022/02/05 03:54:48;;;;;;;19.38;12.10;;;180.00;2252.80;;;;;;4990143;28;20030;-58
2022/02/05 03:57:13;;;;;;;26.15;18.00;;;180.10;2252.80;;;;;;4990026;28;20046;-60
2022/02/05 03:59:39;;;;;;;43.70;26.60;;;180.00;2252.80;;;;;;4990321;28;20031;-58
2022/02/05 04:02:05;;;;;;;33.90;19.70;;;180.00;2252.80;;;;;;4989820;28;20121;-59
2022/02/05 04:04:31;;;;;;;17.00;10.13;;;179.90;2252.80;;;;;;4990191;28;20113;-59
2022/02/05 04:06:57;;;;;;;77.82;45.85;;;180.00;2252.80;;;;;;4989880;28;20084;-58
2022/02/05 04:09:28;;;;;;;20.15;14.10;;;180.00;2252.80;;;;;;4990128;28;20126;-58
2022/02/05 04:15:55;;;;;;;54.33;30.38;;;179.90;2252.80;;;;;;4989958;28;20042;-60
2022/02/05 04:17:27;;;;;;;9.30;6.20;;;179.90;2252.80;;;;;;4989720;28;20049;-59
2022/02/05 04:19:53;;;;;;;9.95;6.75;;;180.00;2252.80;;;;;;4990111;28;20014;-59
2022/02/05 04:22:19;;;;;;;9.68;5.47;;;180.10;2252.80;;;;;;4990087;28;20600;-59
2022/02/05 04:24:45;;;;;;;39.92;26.50;;;180.00;2252.80;;;;;;4989914;28;20022;-59
2022/02/05 04:27:11;;;;;;;21.35;14.70;;;180.10;2252.80;;;;;;4989814;28;20062;-59
2022/02/05 04:29:37;;;;;;;11.45;8.85;;;180.10;2252.80;;;;;;4989706;28;20108;-59
2022/02/05 04:32:03;;;;;;;8.35;6.95;;;180.10;2252.80;;;;;;4989999;28;20077;-59
2022/02/05 04:34:29;;;;;;;6.07;4.47;;;204.80;2252.80;;;;;;4989496;28;20042;-59
2022/02/05 04:36:56;;;;;;;10.90;9.13;;;204.80;2252.80;;;;;;4989972;28;20113;-59
2022/02/05 04:39:22;;;;;;;9.20;6.35;;;204.90;2252.80;;;;;;4990076;28;20156;-59
2022/02/05 04:55:00;;;;;;;15.10;12.93;;;179.80;2252.80;;;;;;4993894;28;20161;-60
2022/02/05 05:05:35;;;;;;;9.82;6.13;;;204.90;2252.80;;;;;;4993619;28;20034;-59
2022/02/05 05:21:39;;;;;;;21.98;9.88;;;205.20;2252.80;;;;;;4993577;28;20757;-60
2022/02/05 05:24:05;;;;;;;15.68;8.77;;;205.30;2252.80;;;;;;4993165;28;20034;-59
2022/02/05 05:26:31;;;;;;;105.30;62.70;;;205.40;2252.80;;;;;;4993093;28;20038;-60
2022/02/05 05:28:56;;;;;;;175.38;104.38;;;205.30;2252.80;;;;;;4992973;28;20055;-60
2022/02/05 05:31:22;;;;;;;207.50;124.18;;;204.90;2252.80;;;;;;4993187;28;20031;-59
2022/02/05 05:33:48;;;;;;;138.20;84.13;;;180.00;2252.80;;;;;;4992694;28;20113;-60
2022/02/05 05:36:14;;;;;;;124.40;74.43;;;204.80;2252.80;;;;;;4992701;28;20361;-60
2022/02/05 05:38:39;;;;;;;65.15;39.45;;;180.10;2252.80;;;;;;4993186;28;20038;-59
2022/02/05 05:41:05;;;;;;;38.65;23.17;;;180.10;2252.80;;;;;;4992753;28;20058;-59
2022/02/05 05:43:50;;;;;;;36.85;24.05;;;204.90;2252.80;;;;;;4992684;28;20049;-60
2022/02/05 05:46:42;;;;;;;176.25;131.98;;;205.00;2252.80;;;;;;4992916;28;20034;-59
2022/02/05 05:49:16;;;;;;;98.07;72.22;;;205.20;2252.80;;;;;;4992328;28;20026;-59
2022/02/05 05:51:44;;;;;;;54.80;39.47;;;205.30;2252.80;;;;;;4992795;28;20034;-58
2022/02/05 05:54:10;;;;;;;26.05;16.98;;;205.40;2252.80;;;;;;4992743;28;20109;-59
2022/02/05 05:56:36;;;;;;;129.70;80.28;;;205.40;2252.80;;;;;;4992406;28;20591;-59
2022/02/05 05:59:04;;;;;;;78.97;55.80;;;205.20;2252.80;;;;;;4992651;28;20038;-59
2022/02/05 06:01:30;;;;;;;18.52;12.63;;;205.20;2252.80;;;;;;4992383;28;20026;-60
2022/02/05 06:03:57;;;;;;;12.10;9.13;;;205.20;2252.80;;;;;;4992121;28;20108;-59
2022/02/05 06:06:23;;;;;;;17.27;10.70;;;205.00;2252.80;;;;;;4992478;28;20022;-60
2022/02/05 06:08:49;;;;;;;20.38;14.75;;;205.20;2252.80;;;;;;4992154;28;20448;-60
2022/02/05 06:11:14;;;;;;;27.73;20.85;;;205.20;2252.80;;;;;;4991790;28;20137;-59
2022/02/05 06:13:40;;;;;;;29.67;18.75;;;205.40;2252.80;;;;;;4992226;28;20097;-59
2022/02/05 06:16:11;;;;;;;12.70;8.13;;;205.40;2252.80;;;;;;4991900;28;20114;-60
2022/02/05 06:18:37;;;;;;;20.70;11.38;;;205.20;2252.80;;;;;;4991787;28;20404;-60
2022/02/05 06:21:02;;;;;;;14.18;8.52;;;205.00;2252.80;;;;;;4992192;28;20027;-59
2022/02/05 06:23:28;;;;;;;10.23;6.22;;;205.00;2252.80;;;;;;4991967;28;20121;-59
2022/02/05 06:25:54;;;;;;;18.27;12.63;;;205.00;2252.80;;;;;;4991936;28;20041;-60
2022/02/05 06:28:20;;;;;;;16.77;11.45;;;205.00;2252.80;;;;;;4991637;28;20050;-59
2022/02/05 06:30:46;;;;;;;44.88;21.83;;;205.10;2252.80;;;;;;4991834;28;20072;-60
2022/02/05 06:33:12;;;;;;;27.70;18.55;;;205.20;2252.80;;;;;;4992146;28;20030;-59
2022/02/05 06:35:38;;;;;;;24.25;15.00;;;205.10;2252.80;;;;;;4991591;28;20027;-60
2022/02/05 06:38:04;;;;;;;17.77;13.75;;;205.00;2252.80;;;;;;4991813;28;20507;-59
2022/02/05 06:40:30;;;;;;;21.30;15.18;;;205.20;2252.80;;;;;;4991224;28;20447;-59
2022/02/05 06:42:56;;;;;;;21.58;11.90;;;205.30;2252.80;;;;;;4987568;28;20505;-59
2022/02/05 06:45:22;;;;;;;22.42;18.27;;;205.10;2252.80;;;;;;4988355;28;20058;-58
2022/02/05 06:47:47;;;;;;;25.23;18.65;;;205.20;2252.80;;;;;;4990806;28;20042;-58
2022/02/05 06:50:14;;;;;;;22.38;14.90;;;205.40;2252.80;;;;;;4991738;28;20030;-60
2022/02/05 06:52:43;;;;;;;15.20;11.52;;;205.50;2252.80;;;;;;4991252;28;20030;-59
2022/02/05 06:55:10;;;;;;;19.52;14.43;;;205.60;2252.80;;;;;;4991481;28;20022;-59
2022/02/05 06:57:37;;;;;;;16.15;9.23;;;205.60;2252.80;;;;;;4991082;28;20042;-60
2022/02/05 07:00:08;;;;;;;13.57;10.25;;;205.60;2252.80;;;;;;4991006;28;20036;-60
2022/02/05 07:02:33;;;;;;;17.23;11.48;;;205.70;2252.80;;;;;;4991531;28;20114;-60
2022/02/05 07:04:59;;;;;;;20.95;13.25;;;205.70;2252.80;;;;;;4991184;28;20094;-60
2022/02/05 07:07:25;;;;;;;33.35;23.48;;;205.70;2252.80;;;;;;4991209;28;20033;-59
2022/02/05 07:09:51;;;;;;;39.42;26.52;;;230.40;2252.80;;;;;;4991256;28;20456;-59
2022/02/05 07:12:17;;;;;;;29.42;20.08;;;205.70;2252.80;;;;;;4990505;28;20033;-60
2022/02/05 07:14:57;;;;;;;28.92;20.70;;;205.50;2252.80;;;;;;4991149;28;20025;-59
2022/02/05 07:17:38;;;;;;;31.65;21.70;;;205.60;2252.80;;;;;;4990546;28;20038;-60
2022/02/05 07:20:16;;;;;;;25.52;15.38;;;205.40;2252.80;;;;;;4990930;28;20030;-59
2022/02/05 07:23:10;;;;;;;13.98;9.30;;;205.30;2252.80;;;;;;4991023;28;20031;-60
2022/02/05 07:31:00;;;;;;;54.67;33.70;;;205.40;2252.80;;;;;;4990889;28;20080;-60
2022/02/05 07:33:26;;;;;;;48.85;30.70;;;205.70;2252.80;;;;;;4990266;28;20033;-59
2022/02/05 07:35:52;;;;;;;18.05;11.00;;;230.40;2252.80;;;;;;4990865;28;20038;-59
2022/02/05 07:38:18;;;;;;;13.57;9.10;;;230.50;2252.80;;;;;;4990446;28;20045;-60
2022/02/05 07:40:44;;;;;;;18.75;11.32;;;230.50;2252.80;;;;;;4990589;28;20019;-59
2022/02/05 07:43:10;;;;;;;17.42;11.75;;;230.50;2252.80;;;;;;4990756;28;20034;-60
2022/02/05 07:45:36;;;;;;;15.02;10.70;;;230.60;2252.80;;;;;;4990505;28;20022;-61
2022/02/05 07:48:01;;;;;;;36.55;20.77;;;230.80;2252.80;;;;;;4990849;28;20492;-59
2022/02/05 07:50:27;;;;;;;30.30;17.77;;;230.80;2252.80;;;;;;4990307;28;20420;-60
2022/02/05 07:52:53;;;;;;;18.90;13.05;;;230.80;2252.80;;;;;;4990681;28;20031;-60
2022/02/05 07:55:19;;;;;;;23.90;15.40;;;230.90;2252.80;;;;;;4990431;28;20507;-61
2022/02/05 07:57:44;;;;;;;32.22;23.23;;;230.90;2252.80;;;;;;4989738;28;20126;-60
2022/02/05 08:00:11;;;;;;;20.08;12.57;;;231.00;2252.80;;;;;;4990357;28;20089;-60
2022/02/05 08:02:36;;;;;;;22.23;15.15;;;230.80;2252.80;;;;;;4990173;28;20473;-60
2022/02/05 08:05:02;;;;;;;27.70;19.58;;;230.80;2252.80;;;;;;4990208;28;20062;-60
2022/02/05 08:07:28;;;;;;;34.95;24.38;;;230.90;2252.80;;;;;;4990333;28;20027;-60
2022/02/05 08:10:01;;;;;;;382.42;235.27;;;231.00;2252.80;;;;;;4989884;28;20027;-59
2022/02/05 08:12:28;;;;;;;223.57;146.02;;;231.10;2252.80;;;;;;4989769;28;20500;-59
2022/02/05 08:14:57;;;;;;;181.00;129.82;;;231.10;2252.80;;;;;;4989366;28;20030;-59
2022/02/05 08:17:32;;;;;;;241.63;179.13;;;231.10;2252.80;;;;;;4989535;28;20392;-60
2022/02/05 08:19:58;;;;;;;230.00;162.75;;;230.90;2252.80;;;;;;4989435;28;20026;-59
2022/02/05 08:22:24;;;;;;;223.45;154.02;;;230.90;2252.80;;;;;;4989690;28;20030;-60
2022/02/05 08:24:49;;;;;;;314.95;223.82;;;231.00;2252.80;;;;;;4988966;28;20018;-59
2022/02/05 08:27:16;;;;;;;129.25;107.55;;;230.90;2252.80;;;;;;4989009;28;20501;-63
2022/02/05 08:29:54;;;;;;;76.38;62.88;;;231.00;2252.80;;;;;;4989469;28;20205;-64
2022/02/05 08:32:24;;;;;;;66.70;47.28;;;230.90;2252.80;;;;;;4988501;28;20040;-60
2022/02/05 08:34:50;;;;;;;140.50;111.93;;;230.90;2252.80;;;;;;4971731;28;20461;-59
2022/02/05 08:37:15;;;;;;;83.32;61.03;;;231.00;2252.80;;;;;;4989140;28;20104;-60
2022/02/05 08:39:42;;;;;;;66.78;42.03;;;231.00;2252.80;;;;;;4989099;28;20026;-60
2022/02/05 08:42:08;;;;;;;237.13;157.73;;;231.10;2252.80;;;;;;4988771;28;20026;-60
2022/02/05 08:44:33;;;;;;;426.75;280.83;;;231.10;2252.80;;;;;;4989661;28;20037;-62
2022/02/05 08:47:01;;;;;;;761.97;528.03;;;231.20;2252.80;;;;;;4989826;28;20035;-63
2022/02/05 08:49:30;;;;;;;143.30;94.88;;;231.20;2252.80;;;;;;4989641;28;20031;-65
2022/02/05 08:51:59;;;;;;;52.38;30.70;;;231.20;2252.80;;;;;;4989682;28;20058;-63
2022/02/05 08:54:26;;;;;;;83.80;58.50;;;230.90;2252.80;;;;;;4989610;28;20742;-62
2022/02/05 08:56:53;;;;;;;273.85;202.40;;;230.90;2252.80;;;;;;4989474;28;20504;-64
2022/02/05 08:59:20;;;;;;;171.70;140.43;;;230.80;2252.80;;;;;;4989465;28;20042;-65
2022/02/05 09:01:53;;;;;;;127.05;96.53;;;230.90;2252.80;;;;;;4989841;28;20030;-62
2022/02/05 09:06:56;;;;;;;30.88;19.73;;;230.80;2252.80;;;;;;4989926;28;20614;-59
2022/02/05 09:16:56;;;;;;;85.93;70.22;;;230.90;2252.80;;;;;;4989616;28;20034;-65
2022/02/05 09:19:21;;;;;;;61.20;47.88;;;230.90;2252.80;;;;;;4988764;28;20112;-68
2022/02/05 09:21:47;;;;;;;54.20;46.88;;;231.10;2252.80;;;;;;4989450;28;20066;-62
2022/02/05 09:24:13;;;;;;;45.30;36.83;;;231.20;2252.80;;;;;;4990108;28;20027;-65
2022/02/05 09:26:46;;;;;;;53.05;38.08;;;231.30;2252.80;;;;;;4990432;28;20027;-63
2022/02/05 09:29:18;;;;;;;57.47;40.28;;;256.00;2252.80;;;;;;4990592;28;20200;-61
2022/02/05 09:31:47;;;;;;;30.50;19.45;;;256.20;2252.80;;;;;;4990326;28;20018;-59
2022/02/05 09:34:13;;;;;;;27.05;16.67;;;256.20;2252.80;;;;;;4990395;28;20034;-60
2022/02/05 09:36:40;;;;;;;32.83;25.15;;;256.20;2252.80;;;;;;4993230;28;20154;-63
2022/02/05 09:39:07;;;;;;;44.45;38.10;;;256.20;2252.80;;;;;;4993702;28;20022;-62
2022/02/05 09:41:34;;;;;;;38.85;32.22;;;256.20;2252.80;;;;;;4993842;28;20523;-60
2022/02/05 09:44:00;;;;;;;37.10;26.90;;;256.30;2252.80;;;;;;4993905;28;20027;-60
2022/02/05 09:46:25;;;;;;;29.55;19.85;;;256.40;2252.80;;;;;;4993692;28;20030;-58
2022/02/05 09:48:53;;;;;;;19.02;14.57;;;256.50;2252.80;;;;;;4993634;28;20109;-58
2022/02/05 09:51:23;;;;;;;23.20;14.82;;;256.40;2252.80;;;;;;4993720;28;20030;-61
2022/02/05 09:53:51;;;;;;;32.60;24.85;;;256.70;2252.80;;;;;;4993529;28;20022;-57
2022/02/05 09:56:19;;;;;;;63.80;47.10;;;256.90;2252.80;;;;;;4993519;28;20030;-60
2022/02/05 09:58:45;;;;;;;105.25;81.95;;;281.60;2278.40;;;;;;4993243;28;20038;-63
2022/02/05 10:01:16;;;;;;;86.50;67.07;;;281.70;2278.40;;;;;;4993673;28;20570;-59
2022/02/05 10:03:44;;;;;;;239.35;144.63;;;281.60;2278.40;;;;;;4993426;28;20446;-59
2022/02/05 10:06:18;;;;;;;455.98;314.63;;;256.80;2252.80;;;;;;4993337;28;20146;-59
2022/02/05 10:09:01;;;;;;;158.63;119.43;;;256.60;2252.80;;;;;;4993241;28;20161;-58
2022/02/05 10:11:30;;;;;;;;;;;256.00;2252.80;;;;;;4993711;28;20431;-59
2022/02/05 10:14:11;;;;;;;185.27;130.43;;;231.20;2252.80;;;;;;4993226;28;20000;-59
2022/02/05 10:16:37;;;;;;;194.52;141.27;;;256.10;2252.80;;;;;;4992766;28;20108;-62
2022/02/05 10:19:03;;;;;;;182.18;130.77;;;256.40;2252.80;;;;;;4992794;28;20481;-63
2022/02/05 10:21:30;;;;;;;203.98;144.45;;;256.70;2252.80;;;;;;4993026;28;20037;-63
2022/02/05 10:24:08;;;;;;;149.43;108.80;;;256.80;2252.80;;;;;;4993295;28;20054;-61
2022/02/05 10:26:44;;;;;;;119.93;91.70;;;256.90;2252.80;;;;;;4992887;28;20019;-60
2022/02/05 10:29:14;;;;;;;132.55;96.85;;;281.70;2278.40;;;;;;4975858;28;20053;-58
2022/02/05 10:32:09;;;;;;;175.65;130.07;;;282.00;2278.40;;;;;;4993120;28;20480;-59
2022/02/05 10:35:54;;;;;;;198.23;160.50;;;282.10;2278.40;;;;;;4992925;28;20038;-59
2022/02/05 10:38:29;;;;;;;260.73;191.20;;;282.30;2278.40;;;;;;4891506;29;20053;-58
2022/02/05 10:43:07;;;;;;;196.80;153.55;;;282.20;2278.40;;;;;;4894642;29;20039;-60
2022/02/05 10:45:50;;;;;;;211.05;161.23;;;282.40;2278.40;;;;;;4894868;29;20078;-62
2022/02/05 10:48:21;;;;;;;327.87;247.97;;;282.50;2278.40;;;;;;4894305;29;20077;-60
2022/02/05 10:50:48;;;;;;;427.77;324.63;;;282.20;2278.40;;;;;;4894664;29;20033;-62
2022/02/05 10:53:29;;;;;;;309.85;227.82;;;282.20;2278.40;;;;;;4894725;29;20524;-61
2022/02/05 11:07:19;;;;;;;284.50;226.13;;;307.80;2304.00;;;;;;4894663;29;20404;-59
2022/02/05 11:09:50;;;;;;;269.67;215.55;;;308.00;2304.00;;;;;;4894254;29;20096;-61
2022/02/05 11:20:17;;;;;;;491.92;401.67;;;308.10;2304.00;;;;;;4991771;28;20038;-62
2022/02/05 11:22:58;;;;;;;479.65;393.98;;;307.60;2304.00;;;;;;4991608;28;20489;-60
2022/02/05 11:25:30;;;;;;;411.20;331.48;;;307.50;2304.00;;;;;;4992124;28;20102;-60
2022/02/05 11:27:55;;;;;;;357.75;292.85;;;307.80;2304.00;;;;;;4991513;28;20047;-60
2022/02/05 11:30:31;;;;;;;282.65;231.85;;;307.90;2304.00;;;;;;4991820;28;20084;-64
2022/02/05 11:33:02;;;;;;;242.98;198.00;;;307.80;2304.00;;;;;;4991925;28;20062;-59
2022/02/05 11:35:43;;;;;;;204.85;162.65;;;307.90;2304.00;;;;;;4991696;28;20027;-59
2022/02/05 11:38:09;;;;;;;180.35;142.27;;;308.10;2304.00;;;;;;4991517;28;20039;-62
2022/02/05 11:40:44;;;;;;;141.93;111.10;;;308.00;2304.00;;;;;;4991570;28;20024;-58
2022/02/05 11:43:23;;;;;;;184.40;149.52;;;308.00;2304.00;;;;;;4991338;28;20018;-59
2022/02/05 11:46:07;;;;;;;232.65;194.43;;;307.90;2304.00;;;;;;4991715;28;20027;-59
2022/02/05 11:48:50;;;;;;;266.85;214.57;;;307.70;2304.00;;;;;;4991595;28;20515;-58
2022/02/05 11:51:20;;;;;;;308.92;253.63;;;307.60;2304.00;;;;;;4991372;28;20480;-58
2022/02/05 11:53:58;;;;;;;233.63;177.45;;;307.40;2304.00;;;;;;4991542;28;20030;-60
2022/02/05 11:56:49;;;;;;;166.38;123.78;;;307.30;2304.00;;;;;;4991537;28;20146;-62
2022/02/05 11:59:19;;;;;;;107.55;81.60;;;307.40;2304.00;;;;;;4990826;28;20103;-60
2022/02/05 12:01:46;;;;;;;54.80;40.65;;;307.70;2304.00;;;;;;4990810;28;20088;-58
2022/02/05 12:04:16;;;;;;;38.58;27.92;;;307.60;2304.00;;;;;;4991314;28;20397;-58
2022/02/05 12:06:50;;;;;;;50.05;34.58;;;307.70;2304.00;;;;;;4991202;28;20026;-58
2022/02/05 12:09:35;;;;;;;64.53;46.88;;;307.90;2304.00;;;;;;4991048;28;20088;-58
2022/02/05 12:12:33;;;;;;;70.82;51.35;;;307.90;2304.00;;;;;;4991255;28;20022;-58
2022/02/05 12:15:17;;;;;;;102.53;73.82;;;308.10;2304.00;;;;;;4983095;28;20080;-58
2022/02/05 12:18:02;;;;;;;114.03;86.20;;;308.00;2304.00;;;;;;4990924;28;20035;-61
2022/02/05 12:20:32;;;;;;;106.40;81.18;;;308.00;2304.00;;;;;;4990332;28;20382;-63
2022/02/05 12:25:30;;;;;;;208.50;159.15;;;307.90;2304.00;;;;;;4991043;28;20424;-63
2022/02/05 12:27:56;;;;;;;184.02;146.13;;;307.80;2304.00;;;;;;4990557;28;20050;-63
2022/02/05 12:30:35;;;;;;;119.40;95.22;;;307.90;2304.00;;;;;;4991081;28;20410;-63
2022/02/05 12:33:02;;;;;;;75.90;56.42;;;307.80;2304.00;;;;;;4990872;28;20034;-62
2022/02/05 12:35:28;;;;;;;51.40;37.97;;;307.70;2304.00;;;;;;4990753;28;20097;-59
2022/02/05 12:37:58;;;;;;;51.28;36.10;;;307.60;2304.00;;;;;;4991079;28;20535;-58
2022/02/05 12:40:25;;;;;;;33.25;22.30;;;307.60;2304.00;;;;;;4991012;28;20027;-58
2022/02/05 12:42:55;;;;;;;27.20;19.40;;;307.40;2304.00;;;;;;4990593;28;20117;-58
2022/02/05 12:45:36;;;;;;;31.98;22.83;;;307.30;2304.00;;;;;;4990540;28;20519;-58
2022/02/05 12:48:06;;;;;;;28.08;17.92;;;307.30;2304.00;;;;;;4990666;28;20080;-58
2022/02/05 12:50:32;;;;;;;30.58;19.90;;;307.20;2304.00;;;;;;4990577;28;20035;-58
2022/02/05 12:53:00;;;;;;;28.33;19.70;;;282.50;2278.40;;;;;;4990517;28;20593;-58
2022/02/05 12:55:27;;;;;;;22.25;16.05;;;307.20;2304.00;;;;;;4990672;28;20029;-58
2022/02/05 12:58:03;;;;;;;22.35;16.33;;;307.20;2304.00;;;;;;4990532;28;20432;-59
2022/02/05 13:00:29;;;;;;;24.98;18.52;;;307.30;2304.00;;;;;;4990083;28;20041;-58
2022/02/05 13:02:55;;;;;;;28.52;22.73;;;307.40;2304.00;;;;;;4990757;28;20030;-63
2022/02/05 13:05:34;;;;;;;31.40;22.17;;;307.30;2304.00;;;;;;4990864;28;20369;-62
2022/02/05 13:08:00;;;;;;;26.98;20.90;;;307.50;2304.00;;;;;;4990570;28;20027;-58
2022/02/05 13:10:40;;;;;;;30.45;22.48;;;307.70;2304.00;;;;;;4992510;28;20034;-60
2022/02/05 13:13:06;;;;;;;29.05;23.02;;;307.60;2304.00;;;;;;4994190;28;20085;-59
2022/02/05 13:15:31;;;;;;;30.50;23.17;;;307.70;2304.00;;;;;;4994476;28;20030;-60
2022/02/05 13:28:44;;;;;;;26.45;19.48;;;308.00;2304.00;;;;;;4993100;28;20522;-58
2022/02/05 13:36:42;;;;;;;24.27;18.23;;;307.90;2304.00;;;;;;4974706;28;20046;-59
2022/02/05 13:44:18;;;;;;;20.30;15.50;;;307.70;2304.00;;;;;;4974356;28;20085;-60
2022/02/05 13:47:02;;;;;;;69.20;62.60;;;307.50;2304.00;;;;;;4956726;28;20030;-59
2022/02/05 13:49:28;;;;;;;15.65;8.65;;;307.50;2304.00;;;;;;4973972;28;20035;-59
2022/02/05 13:51:54;;;;;;;18.67;15.10;;;307.30;2304.00;;;;;;4974062;28;20034;-60
2022/02/05 13:54:20;;;;;;;20.63;14.15;;;307.30;2304.00;;;;;;4974334;28;20053;-58
2022/02/05 13:56:46;;;;;;;13.70;8.15;;;307.40;2304.00;;;;;;4973427;28;20126;-59
2022/02/05 13:59:22;;;;;;;8.88;6.13;;;307.30;2304.00;;;;;;4979111;28;20109;-63
2022/02/05 14:01:48;;;;;;;10.70;9.40;;;282.50;2278.40;;;;;;4992362;28;20035;-63
2022/02/05 14:04:19;;;;;;;10.68;7.30;;;282.40;2278.40;;;;;;4990560;28;20505;-58
2022/02/05 14:06:59;;;;;;;10.98;7.07;;;282.40;2278.40;;;;;;4992686;28;20552;-59
2022/02/05 14:09:35;;;;;;;14.65;10.38;;;282.30;2278.40;;;;;;4989880;28;20113;-61
2022/02/05 14:12:20;;;;;;;12.23;8.80;;;282.30;2278.40;;;;;;4990892;28;20025;-57
2022/02/05 14:15:04;;;;;;;10.10;8.52;;;282.20;2278.40;;;;;;4990776;28;20041;-57
2022/02/05 14:17:30;;;;;;;;;;;282.10;2278.40;;;;;;4988067;28;20049;-57
2022/02/05 14:20:07;;;;;;;15.43;8.90;;;282.00;2278.40;;;;;;4989900;28;19910;-59
2022/02/05 14:22:55;;;;;;;11.02;6.63;;;282.00;2278.40;;;;;;4987154;28;20472;-58
2022/02/05 14:25:29;;;;;;;10.27;7.30;;;282.00;2278.40;;;;;;4991090;28;20477;-57
2022/02/05 14:28:12;;;;;;;12.40;10.63;;;282.00;2278.40;;;;;;4973006;28;20039;-58
2022/02/05 14:30:42;;;;;;;;;;;282.00;2278.40;;;;;;4991406;28;20034;-58
2022/02/05 14:33:09;;;;;;;8.73;6.15;;;282.00;2278.40;;;;;;4990862;28;19916;-61
2022/02/05 14:40:49;;;;;;;9.65;8.55;;;281.90;2278.40;;;;;;4990987;28;20105;-58
2022/02/05 14:43:18;;;;;;;11.88;10.48;;;281.90;2278.40;;;;;;4990680;28;20101;-59
2022/02/05 14:45:45;;;;;;;10.13;7.20;;;281.90;2278.40;;;;;;4990685;28;20719;-61
2022/02/05 14:48:11;;;;;;;12.30;8.10;;;281.80;2278.40;;;;;;4991045;28;20073;-60
2022/02/05 14:50:38;;;;;;;11.80;7.93;;;282.00;2278.40;;;;;;4990077;28;20019;-61
2022/02/05 14:53:04;;;;;;;10.90;8.43;;;281.80;2278.40;;;;;;4989772;28;20118;-58
2022/02/05 14:55:30;;;;;;;10.10;7.53;;;281.70;2278.40;;;;;;4989400;28;20088;-58
2022/02/05 14:57:56;;;;;;;17.33;10.85;;;281.60;2278.40;;;;;;4989347;28;20540;-57
2022/02/05 15:00:22;;;;;;;17.30;11.93;;;281.60;2278.40;;;;;;4989965;28;20076;-57
2022/02/05 15:02:50;;;;;;;28.73;21.35;;;256.90;2252.80;;;;;;4989791;28;20037;-56
2022/02/05 15:05:16;;;;;;;12.65;9.52;;;256.90;2252.80;;;;;;4989394;28;20536;-57
2022/02/05 15:07:43;;;;;;;12.00;8.57;;;256.90;2252.80;;;;;;4990337;28;20117;-56
2022/02/05 15:10:11;;;;;;;13.90;9.15;;;256.70;2252.80;;;;;;4990506;28;20026;-56
2022/02/05 15:12:38;;;;;;;10.93;7.72;;;256.70;2252.80;;;;;;4990520;28;20030;-56
2022/02/05 15:15:14;;;;;;;12.43;10.05;;;256.80;2252.80;;;;;;4989947;28;20040;-56
2022/02/05 15:17:43;;;;;;;11.10;9.18;;;256.70;2252.80;;;;;;4990120;28;20038;-57
2022/02/05 15:20:11;;;;;;;12.10;9.25;;;256.50;2252.80;;;;;;4989960;28;20026;-57
2022/02/05 15:22:37;;;;;;;14.70;9.88;;;256.50;2252.80;;;;;;4989437;28;20126;-57
2022/02/05 15:25:03;;;;;;;16.95;10.27;;;256.40;2252.80;;;;;;4990150;28;20105;-57
2022/02/05 15:27:29;;;;;;;16.90;11.10;;;256.30;2252.80;;;;;;4989446;28;20043;-55